sensor_id;sensor_type;location;lat;lon;timestamp;temperature;humidity
42907;DHT22;28552;51.146;6.576;2024-01-15T00:02:57;0.70;99.90
42907;DHT22;28552;51.146;6.576;2024-01-15T00:05:57;0.70;99.90
42907;DHT22;28552;51.146;6.576;2024-01-15T00:08:58;0.70;99.90
42907;DHT22;28552;51.146;6.576;2024-01-15T00:11:59;0.70;99.90
42907;DHT22;28552;51.146;6.576;2024-01-15T00:15:00;0.70;99.90
42907;DHT22;28552;51.146;6.576;2024-01-15T00:18:00;0.60;99.90
42907;DHT22;28552;51.146;6.576;2024-01-15T00:21:01;0.60;99.90
42907;DHT22;28552;51.146;6.576;2024-01-15T00:24:02;0.60;99.90
42907;DHT22;28552;51.146;6.576;2024-01-15T00:27:02;0.60;99.90
42907;DHT22;28552;51.146;6.576;2024-01-15T00:30:03;0.60;99.90
42907;DHT22;28552;51.146;6.576;2024-01-15T00:33:04;0.60;99.90
42907;DHT22;28552;51.146;6.576;2024-01-15T00:36:05;0.60;99.90
42907;DHT22;28552;51.146;6.576;2024-01-15T00:39:06;0.60;99.90
42907;DHT22;28552;51.146;6.576;2024-01-15T00:42:07;0.60;99.90
42907;DHT22;28552;51.146;6.576;2024-01-15T00:45:08;0.60;99.90
42907;DHT22;28552;51.146;6.576;2024-01-15T00:48:08;0.60;99.90
42907;DHT22;28552;51.146;6.576;2024-01-15T00:51:09;0.60;99.90
42907;DHT22;28552;51.146;6.576;2024-01-15T00:54:10;0.70;99.90
42907;DHT22;28552;51.146;6.576;2024-01-15T00:57:10;0.60;99.90
42907;DHT22;28552;51.146;6.576;2024-01-15T01:00:11;0.60;99.90
42907;DHT22;28552;51.146;6.576;2024-01-15T01:03:12;0.70;99.90
42907;DHT22;28552;51.146;6.576;2024-01-15T01:06:12;0.70;99.90
42907;DHT22;28552;51.146;6.576;2024-01-15T01:09:13;0.70;99.90
42907;DHT22;28552;51.146;6.576;2024-01-15T01:12:14;0.70;99.90
42907;DHT22;28552;51.146;6.576;2024-01-15T01:15:14;0.70;99.90
42907;DHT22;28552;51.146;6.576;2024-01-15T01:18:15;0.70;99.90
42907;DHT22;28552;51.146;6.576;2024-01-15T01:21:15;0.70;99.90
42907;DHT22;28552;51.146;6.576;2024-01-15T01:24:16;0.70;99.90
42907;DHT22;28552;51.146;6.576;2024-01-15T01:27:16;0.70;99.90
42907;DHT22;28552;51.146;6.576;2024-01-15T01:30:17;0.80;99.90
42907;DHT22;28552;51.146;6.576;2024-01-15T01:33:17;0.80;99.90
42907;DHT22;28552;51.146;6.576;2024-01-15T01:36:18;0.90;99.90
42907;DHT22;28552;51.146;6.576;2024-01-15T01:39:18;0.90;99.90
42907;DHT22;28552;51.146;6.576;2024-01-15T01:42:19;0.90;99.90
42907;DHT22;28552;51.146;6.576;2024-01-15T01:45:19;0.90;99.90
42907;DHT22;28552;51.146;6.576;2024-01-15T01:48:20;0.90;99.90
42907;DHT22;28552;51.146;6.576;2024-01-15T01:51:22;0.90;99.90
42907;DHT22;28552;51.146;6.576;2024-01-15T01:54:24;0.90;99.90
42907;DHT22;28552;51.146;6.576;2024-01-15T01:57:25;0.90;99.90
42907;DHT22;28552;51.146;6.576;2024-01-15T02:00:26;0.90;99.90
42907;DHT22;28552;51.146;6.576;2024-01-15T02:03:27;0.90;99.90
42907;DHT22;28552;51.146;6.576;2024-01-15T02:06:28;1.00;99.90
42907;DHT22;28552;51.146;6.576;2024-01-15T02:09:28;1.00;99.90
42907;DHT22;28552;51.146;6.576;2024-01-15T02:12:29;1.00;99.90
42907;DHT22;28552;51.146;6.576;2024-01-15T02:15:29;1.00;99.90
42907;DHT22;28552;51.146;6.576;2024-01-15T02:18:40;1.00;99.90
42907;DHT22;28552;51.146;6.576;2024-01-15T02:21:41;1.00;99.90
42907;DHT22;28552;51.146;6.576;2024-01-15T02:24:42;1.00;99.90
42907;DHT22;28552;51.146;6.576;2024-01-15T02:27:43;1.00;99.90
42907;DHT22;28552;51.146;6.576;2024-01-15T02:30:44;1.10;99.90
42907;DHT22;28552;51.146;6.576;2024-01-15T02:33:44;1.10;99.90
42907;DHT22;28552;51.146;6.576;2024-01-15T02:36:46;1.00;99.90
42907;DHT22;28552;51.146;6.576;2024-01-15T02:39:47;1.00;99.90
42907;DHT22;28552;51.146;6.576;2024-01-15T02:42:47;1.00;99.90
42907;DHT22;28552;51.146;6.576;2024-01-15T02:45:48;1.00;99.90
42907;DHT22;28552;51.146;6.576;2024-01-15T02:48:48;1.00;99.90
42907;DHT22;28552;51.146;6.576;2024-01-15T02:51:49;1.00;99.90
42907;DHT22;28552;51.146;6.576;2024-01-15T02:54:49;1.00;99.90
42907;DHT22;28552;51.146;6.576;2024-01-15T02:57:50;1.10;99.90
42907;DHT22;28552;51.146;6.576;2024-01-15T03:00:50;1.10;99.90
42907;DHT22;28552;51.146;6.576;2024-01-15T03:03:51;1.10;99.90
42907;DHT22;28552;51.146;6.576;2024-01-15T03:06:51;1.10;99.90
42907;DHT22;28552;51.146;6.576;2024-01-15T03:09:52;1.10;99.90
42907;DHT22;28552;51.146;6.576;2024-01-15T03:12:52;1.10;99.90
42907;DHT22;28552;51.146;6.576;2024-01-15T03:15:53;1.10;99.90
42907;DHT22;28552;51.146;6.576;2024-01-15T03:18:53;1.10;99.90
42907;DHT22;28552;51.146;6.576;2024-01-15T03:21:54;1.10;99.90
42907;DHT22;28552;51.146;6.576;2024-01-15T03:24:55;1.10;99.90
42907;DHT22;28552;51.146;6.576;2024-01-15T03:27:55;1.10;99.90
42907;DHT22;28552;51.146;6.576;2024-01-15T03:30:56;1.10;99.90
42907;DHT22;28552;51.146;6.576;2024-01-15T03:33:57;1.10;99.90
42907;DHT22;28552;51.146;6.576;2024-01-15T03:36:57;1.20;99.90
42907;DHT22;28552;51.146;6.576;2024-01-15T03:39:59;1.10;99.90
42907;DHT22;28552;51.146;6.576;2024-01-15T03:42:59;1.20;99.90
42907;DHT22;28552;51.146;6.576;2024-01-15T03:46:00;1.10;99.90
42907;DHT22;28552;51.146;6.576;2024-01-15T03:49:00;1.10;99.90
42907;DHT22;28552;51.146;6.576;2024-01-15T03:52:01;1.10;99.90
42907;DHT22;28552;51.146;6.576;2024-01-15T03:55:01;1.10;99.90
42907;DHT22;28552;51.146;6.576;2024-01-15T03:58:02;1.20;99.90
42907;DHT22;28552;51.146;6.576;2024-01-15T04:01:02;1.20;99.90
42907;DHT22;28552;51.146;6.576;2024-01-15T04:04:03;1.20;99.90
42907;DHT22;28552;51.146;6.576;2024-01-15T04:07:04;1.10;99.90
42907;DHT22;28552;51.146;6.576;2024-01-15T04:10:05;1.10;99.90
42907;DHT22;28552;51.146;6.576;2024-01-15T04:13:06;1.20;99.90
42907;DHT22;28552;51.146;6.576;2024-01-15T04:16:06;1.10;99.90
42907;DHT22;28552;51.146;6.576;2024-01-15T04:19:07;1.20;99.90
42907;DHT22;28552;51.146;6.576;2024-01-15T04:22:07;1.10;99.90
42907;DHT22;28552;51.146;6.576;2024-01-15T04:25:08;1.10;99.90
42907;DHT22;28552;51.146;6.576;2024-01-15T04:28:09;1.10;99.90
42907;DHT22;28552;51.146;6.576;2024-01-15T04:31:10;1.10;99.90
42907;DHT22;28552;51.146;6.576;2024-01-15T04:34:20;1.10;99.90
42907;DHT22;28552;51.146;6.576;2024-01-15T04:37:20;1.10;99.90
42907;DHT22;28552;51.146;6.576;2024-01-15T04:40:21;1.20;99.90
42907;DHT22;28552;51.146;6.576;2024-01-15T04:43:21;1.20;99.90
42907;DHT22;28552;51.146;6.576;2024-01-15T04:46:22;1.20;99.90
42907;DHT22;28552;51.146;6.576;2024-01-15T04:49:22;1.20;99.90
42907;DHT22;28552;51.146;6.576;2024-01-15T04:52:26;1.20;99.90
42907;DHT22;28552;51.146;6.576;2024-01-15T04:55:27;1.20;99.90
42907;DHT22;28552;51.146;6.576;2024-01-15T04:58:27;1.20;99.90
42907;DHT22;28552;51.146;6.576;2024-01-15T05:01:32;1.20;99.90
42907;DHT22;28552;51.146;6.576;2024-01-15T05:04:32;1.20;99.90
42907;DHT22;28552;51.146;6.576;2024-01-15T05:07:33;1.20;99.90
42907;DHT22;28552;51.146;6.576;2024-01-15T05:10:34;1.20;99.90
42907;DHT22;28552;51.146;6.576;2024-01-15T05:13:34;1.10;99.90
42907;DHT22;28552;51.146;6.576;2024-01-15T05:16:37;1.00;99.90
42907;DHT22;28552;51.146;6.576;2024-01-15T05:19:38;1.00;99.90
42907;DHT22;28552;51.146;6.576;2024-01-15T05:22:38;1.00;99.90
42907;DHT22;28552;51.146;6.576;2024-01-15T05:25:39;1.00;99.90
42907;DHT22;28552;51.146;6.576;2024-01-15T05:28:41;1.00;99.90
42907;DHT22;28552;51.146;6.576;2024-01-15T05:31:43;1.10;99.90
42907;DHT22;28552;51.146;6.576;2024-01-15T05:34:43;1.10;99.90
42907;DHT22;28552;51.146;6.576;2024-01-15T05:37:45;1.10;99.90
42907;DHT22;28552;51.146;6.576;2024-01-15T05:40:45;1.20;99.90
42907;DHT22;28552;51.146;6.576;2024-01-15T05:43:46;1.10;99.90
42907;DHT22;28552;51.146;6.576;2024-01-15T05:46:46;1.20;99.90
42907;DHT22;28552;51.146;6.576;2024-01-15T05:49:47;1.20;99.90
42907;DHT22;28552;51.146;6.576;2024-01-15T05:52:48;1.20;99.90
42907;DHT22;28552;51.146;6.576;2024-01-15T05:55:48;1.20;99.90
42907;DHT22;28552;51.146;6.576;2024-01-15T05:58:49;1.20;99.90
42907;DHT22;28552;51.146;6.576;2024-01-15T06:01:49;1.20;99.90
42907;DHT22;28552;51.146;6.576;2024-01-15T06:04:50;1.30;99.90
42907;DHT22;28552;51.146;6.576;2024-01-15T06:07:51;1.30;99.90
42907;DHT22;28552;51.146;6.576;2024-01-15T06:10:51;1.30;99.90
42907;DHT22;28552;51.146;6.576;2024-01-15T06:13:52;1.30;99.90
42907;DHT22;28552;51.146;6.576;2024-01-15T06:16:52;1.30;99.90
42907;DHT22;28552;51.146;6.576;2024-01-15T06:19:53;1.30;99.90
42907;DHT22;28552;51.146;6.576;2024-01-15T06:22:53;1.20;99.90
42907;DHT22;28552;51.146;6.576;2024-01-15T06:25:54;1.10;99.90
42907;DHT22;28552;51.146;6.576;2024-01-15T06:28:54;1.10;99.90
42907;DHT22;28552;51.146;6.576;2024-01-15T06:31:55;1.10;99.90
42907;DHT22;28552;51.146;6.576;2024-01-15T06:34:55;1.10;99.90
42907;DHT22;28552;51.146;6.576;2024-01-15T06:37:56;1.10;99.90
42907;DHT22;28552;51.146;6.576;2024-01-15T06:40:56;1.10;99.90
42907;DHT22;28552;51.146;6.576;2024-01-15T06:43:57;1.20;99.90
42907;DHT22;28552;51.146;6.576;2024-01-15T06:46:57;1.20;99.90
42907;DHT22;28552;51.146;6.576;2024-01-15T06:50:02;1.20;99.90
42907;DHT22;28552;51.146;6.576;2024-01-15T06:53:05;1.20;99.90
42907;DHT22;28552;51.146;6.576;2024-01-15T06:56:05;1.20;99.90
42907;DHT22;28552;51.146;6.576;2024-01-15T06:59:06;1.20;99.90
42907;DHT22;28552;51.146;6.576;2024-01-15T07:02:06;1.20;99.90
42907;DHT22;28552;51.146;6.576;2024-01-15T07:05:07;1.20;99.90
42907;DHT22;28552;51.146;6.576;2024-01-15T07:08:07;1.20;99.90
42907;DHT22;28552;51.146;6.576;2024-01-15T07:11:08;1.30;99.90
42907;DHT22;28552;51.146;6.576;2024-01-15T07:14:09;1.30;99.90
42907;DHT22;28552;51.146;6.576;2024-01-15T07:17:09;1.30;99.90
42907;DHT22;28552;51.146;6.576;2024-01-15T07:20:10;1.30;99.90
42907;DHT22;28552;51.146;6.576;2024-01-15T07:23:11;1.30;99.90
42907;DHT22;28552;51.146;6.576;2024-01-15T07:26:12;1.20;99.90
42907;DHT22;28552;51.146;6.576;2024-01-15T07:29:13;1.20;99.90
42907;DHT22;28552;51.146;6.576;2024-01-15T07:32:13;1.20;99.90
42907;DHT22;28552;51.146;6.576;2024-01-15T07:35:14;1.30;99.90
42907;DHT22;28552;51.146;6.576;2024-01-15T07:38:15;1.30;99.90
42907;DHT22;28552;51.146;6.576;2024-01-15T07:41:16;1.30;99.90
42907;DHT22;28552;51.146;6.576;2024-01-15T07:44:16;1.30;99.90
42907;DHT22;28552;51.146;6.576;2024-01-15T07:47:17;1.30;99.90
42907;DHT22;28552;51.146;6.576;2024-01-15T07:50:18;1.30;99.90
42907;DHT22;28552;51.146;6.576;2024-01-15T07:53:19;1.30;99.90
42907;DHT22;28552;51.146;6.576;2024-01-15T07:56:19;1.30;99.90
42907;DHT22;28552;51.146;6.576;2024-01-15T07:59:21;1.30;99.90
42907;DHT22;28552;51.146;6.576;2024-01-15T08:02:22;1.30;99.90
42907;DHT22;28552;51.146;6.576;2024-01-15T08:05:22;1.30;99.90
42907;DHT22;28552;51.146;6.576;2024-01-15T08:08:23;1.30;99.90
42907;DHT22;28552;51.146;6.576;2024-01-15T08:11:24;1.40;99.90
42907;DHT22;28552;51.146;6.576;2024-01-15T08:14:24;1.30;99.90
42907;DHT22;28552;51.146;6.576;2024-01-15T08:17:25;1.20;99.90
42907;DHT22;28552;51.146;6.576;2024-01-15T08:20:29;1.10;99.90
42907;DHT22;28552;51.146;6.576;2024-01-15T08:23:29;1.10;99.90
42907;DHT22;28552;51.146;6.576;2024-01-15T08:26:31;1.00;99.90
42907;DHT22;28552;51.146;6.576;2024-01-15T08:29:33;1.00;99.90
42907;DHT22;28552;51.146;6.576;2024-01-15T08:32:35;1.00;99.90
42907;DHT22;28552;51.146;6.576;2024-01-15T08:35:41;1.00;99.90
42907;DHT22;28552;51.146;6.576;2024-01-15T08:38:41;1.00;99.90
42907;DHT22;28552;51.146;6.576;2024-01-15T08:41:42;0.90;99.90
42907;DHT22;28552;51.146;6.576;2024-01-15T08:44:42;0.90;99.90
42907;DHT22;28552;51.146;6.576;2024-01-15T08:47:44;0.90;99.90
42907;DHT22;28552;51.146;6.576;2024-01-15T08:50:44;0.80;99.90
42907;DHT22;28552;51.146;6.576;2024-01-15T08:53:46;0.80;99.90
42907;DHT22;28552;51.146;6.576;2024-01-15T08:56:47;0.80;99.90
42907;DHT22;28552;51.146;6.576;2024-01-15T08:59:47;0.80;99.90
42907;DHT22;28552;51.146;6.576;2024-01-15T09:02:48;0.80;99.90
42907;DHT22;28552;51.146;6.576;2024-01-15T09:05:49;0.90;99.90
42907;DHT22;28552;51.146;6.576;2024-01-15T09:08:50;0.90;99.90
42907;DHT22;28552;51.146;6.576;2024-01-15T09:11:51;0.90;99.90
42907;DHT22;28552;51.146;6.576;2024-01-15T09:14:52;0.90;99.90
42907;DHT22;28552;51.146;6.576;2024-01-15T09:17:54;0.90;99.90
42907;DHT22;28552;51.146;6.576;2024-01-15T09:20:54;0.90;99.90
42907;DHT22;28552;51.146;6.576;2024-01-15T09:23:55;0.90;99.90
42907;DHT22;28552;51.146;6.576;2024-01-15T09:26:55;0.90;99.90
42907;DHT22;28552;51.146;6.576;2024-01-15T09:29:56;0.90;99.90
42907;DHT22;28552;51.146;6.576;2024-01-15T09:32:56;0.80;99.90
42907;DHT22;28552;51.146;6.576;2024-01-15T09:35:57;0.90;99.90
42907;DHT22;28552;51.146;6.576;2024-01-15T09:39:01;0.90;99.90
42907;DHT22;28552;51.146;6.576;2024-01-15T09:42:02;0.90;99.90
42907;DHT22;28552;51.146;6.576;2024-01-15T09:45:03;1.00;99.90
42907;DHT22;28552;51.146;6.576;2024-01-15T09:48:04;1.00;99.90
42907;DHT22;28552;51.146;6.576;2024-01-15T09:51:06;1.00;99.90
42907;DHT22;28552;51.146;6.576;2024-01-15T09:54:09;1.00;99.90
42907;DHT22;28552;51.146;6.576;2024-01-15T09:57:09;1.00;99.90
42907;DHT22;28552;51.146;6.576;2024-01-15T10:00:11;0.90;99.90
42907;DHT22;28552;51.146;6.576;2024-01-15T10:03:11;0.90;99.90
42907;DHT22;28552;51.146;6.576;2024-01-15T10:06:16;1.00;99.90
42907;DHT22;28552;51.146;6.576;2024-01-15T10:09:18;1.00;99.90
42907;DHT22;28552;51.146;6.576;2024-01-15T10:12:20;1.10;99.90
42907;DHT22;28552;51.146;6.576;2024-01-15T10:15:22;1.10;99.90
42907;DHT22;28552;51.146;6.576;2024-01-15T10:18:24;1.10;99.90
42907;DHT22;28552;51.146;6.576;2024-01-15T10:21:24;1.10;99.90
42907;DHT22;28552;51.146;6.576;2024-01-15T10:24:27;1.10;99.90
42907;DHT22;28552;51.146;6.576;2024-01-15T10:27:28;1.00;99.90
42907;DHT22;28552;51.146;6.576;2024-01-15T10:30:30;1.00;99.90
42907;DHT22;28552;51.146;6.576;2024-01-15T10:33:31;0.90;99.90
42907;DHT22;28552;51.146;6.576;2024-01-15T10:36:32;1.00;99.90
42907;DHT22;28552;51.146;6.576;2024-01-15T10:39:33;1.00;99.90
42907;DHT22;28552;51.146;6.576;2024-01-15T10:42:33;1.00;99.90
42907;DHT22;28552;51.146;6.576;2024-01-15T10:45:34;1.10;99.90
42907;DHT22;28552;51.146;6.576;2024-01-15T10:48:34;1.10;99.90
42907;DHT22;28552;51.146;6.576;2024-01-15T10:51:36;1.20;99.90
42907;DHT22;28552;51.146;6.576;2024-01-15T10:54:37;1.30;99.90
42907;DHT22;28552;51.146;6.576;2024-01-15T10:57:38;1.40;99.90
42907;DHT22;28552;51.146;6.576;2024-01-15T11:00:38;1.40;99.90
42907;DHT22;28552;51.146;6.576;2024-01-15T11:03:39;1.40;99.90
42907;DHT22;28552;51.146;6.576;2024-01-15T11:06:43;1.40;99.90
42907;DHT22;28552;51.146;6.576;2024-01-15T11:09:45;1.40;99.90
42907;DHT22;28552;51.146;6.576;2024-01-15T11:12:47;1.30;99.90
42907;DHT22;28552;51.146;6.576;2024-01-15T11:16:04;1.30;99.90
42907;DHT22;28552;51.146;6.576;2024-01-15T11:19:05;1.30;99.90
42907;DHT22;28552;51.146;6.576;2024-01-15T11:22:09;1.30;99.90
42907;DHT22;28552;51.146;6.576;2024-01-15T11:25:14;1.30;99.90
42907;DHT22;28552;51.146;6.576;2024-01-15T11:34:59;1.20;99.90
42907;DHT22;28552;51.146;6.576;2024-01-15T11:38:02;1.20;99.90
42907;DHT22;28552;51.146;6.576;2024-01-15T11:41:13;1.30;99.90
42907;DHT22;28552;51.146;6.576;2024-01-15T11:44:15;1.50;99.90
42907;DHT22;28552;51.146;6.576;2024-01-15T11:47:30;1.70;99.90
42907;DHT22;28552;51.146;6.576;2024-01-15T11:50:41;1.70;99.90
42907;DHT22;28552;51.146;6.576;2024-01-15T11:53:45;1.80;99.90
42907;DHT22;28552;51.146;6.576;2024-01-15T11:56:48;1.80;99.90
42907;DHT22;28552;51.146;6.576;2024-01-15T11:59:49;2.00;99.90
42907;DHT22;28552;51.146;6.576;2024-01-15T12:02:50;2.00;99.90
42907;DHT22;28552;51.146;6.576;2024-01-15T12:05:52;2.00;99.90
42907;DHT22;28552;51.146;6.576;2024-01-15T12:09:06;1.90;99.90
42907;DHT22;28552;51.146;6.576;2024-01-15T12:12:09;1.90;99.90
42907;DHT22;28552;51.146;6.576;2024-01-15T12:15:14;1.80;99.90
42907;DHT22;28552;51.146;6.576;2024-01-15T12:18:17;1.90;99.90
42907;DHT22;28552;51.146;6.576;2024-01-15T12:21:18;1.90;99.90
42907;DHT22;28552;51.146;6.576;2024-01-15T12:24:20;1.90;99.90
42907;DHT22;28552;51.146;6.576;2024-01-15T12:27:21;1.80;99.90
42907;DHT22;28552;51.146;6.576;2024-01-15T12:30:22;1.80;99.90
42907;DHT22;28552;51.146;6.576;2024-01-15T12:33:22;1.80;99.90
42907;DHT22;28552;51.146;6.576;2024-01-15T12:36:23;1.70;99.90
42907;DHT22;28552;51.146;6.576;2024-01-15T12:39:24;1.80;99.90
42907;DHT22;28552;51.146;6.576;2024-01-15T12:42:25;1.70;99.90
42907;DHT22;28552;51.146;6.576;2024-01-15T12:45:25;1.80;99.90
42907;DHT22;28552;51.146;6.576;2024-01-15T12:48:26;1.80;99.90
42907;DHT22;28552;51.146;6.576;2024-01-15T12:51:26;1.80;99.90
42907;DHT22;28552;51.146;6.576;2024-01-15T12:54:27;1.80;99.90
42907;DHT22;28552;51.146;6.576;2024-01-15T12:57:28;1.80;99.90
42907;DHT22;28552;51.146;6.576;2024-01-15T13:00:29;1.80;99.90
42907;DHT22;28552;51.146;6.576;2024-01-15T13:03:29;1.80;99.90
42907;DHT22;28552;51.146;6.576;2024-01-15T13:06:30;1.80;99.90
42907;DHT22;28552;51.146;6.576;2024-01-15T13:09:30;1.80;99.90
42907;DHT22;28552;51.146;6.576;2024-01-15T13:12:33;1.80;99.90
42907;DHT22;28552;51.146;6.576;2024-01-15T13:15:33;1.90;99.90
42907;DHT22;28552;51.146;6.576;2024-01-15T13:18:34;1.90;99.90
42907;DHT22;28552;51.146;6.576;2024-01-15T13:21:34;1.90;99.90
42907;DHT22;28552;51.146;6.576;2024-01-15T13:24:35;1.90;99.90
42907;DHT22;28552;51.146;6.576;2024-01-15T13:27:36;1.90;99.90
42907;DHT22;28552;51.146;6.576;2024-01-15T13:30:37;1.90;99.90
42907;DHT22;28552;51.146;6.576;2024-01-15T13:33:38;1.80;99.90
42907;DHT22;28552;51.146;6.576;2024-01-15T13:36:39;1.80;99.90
42907;DHT22;28552;51.146;6.576;2024-01-15T13:39:39;1.80;99.90
42907;DHT22;28552;51.146;6.576;2024-01-15T13:42:40;1.80;99.90
42907;DHT22;28552;51.146;6.576;2024-01-15T13:45:41;1.70;99.90
42907;DHT22;28552;51.146;6.576;2024-01-15T13:48:42;1.70;99.90
42907;DHT22;28552;51.146;6.576;2024-01-15T13:51:43;1.70;99.90
42907;DHT22;28552;51.146;6.576;2024-01-15T13:54:43;1.70;99.90
42907;DHT22;28552;51.146;6.576;2024-01-15T13:57:44;1.70;99.90
42907;DHT22;28552;51.146;6.576;2024-01-15T14:00:44;1.70;99.90
42907;DHT22;28552;51.146;6.576;2024-01-15T14:03:45;1.70;99.90
42907;DHT22;28552;51.146;6.576;2024-01-15T14:06:45;1.80;99.90
42907;DHT22;28552;51.146;6.576;2024-01-15T14:09:46;1.80;99.90
42907;DHT22;28552;51.146;6.576;2024-01-15T14:12:47;1.90;99.90
42907;DHT22;28552;51.146;6.576;2024-01-15T14:15:47;1.90;99.90
42907;DHT22;28552;51.146;6.576;2024-01-15T14:18:50;1.90;99.90
42907;DHT22;28552;51.146;6.576;2024-01-15T14:21:50;1.90;99.90
42907;DHT22;28552;51.146;6.576;2024-01-15T14:24:51;1.90;99.90
42907;DHT22;28552;51.146;6.576;2024-01-15T14:27:51;1.80;99.90
42907;DHT22;28552;51.146;6.576;2024-01-15T14:30:52;1.80;99.90
42907;DHT22;28552;51.146;6.576;2024-01-15T14:33:53;1.80;99.90
42907;DHT22;28552;51.146;6.576;2024-01-15T14:36:53;1.80;99.90
42907;DHT22;28552;51.146;6.576;2024-01-15T14:39:55;1.80;99.90
42907;DHT22;28552;51.146;6.576;2024-01-15T14:42:55;1.70;99.90
42907;DHT22;28552;51.146;6.576;2024-01-15T14:45:56;1.70;99.90
42907;DHT22;28552;51.146;6.576;2024-01-15T14:48:57;1.70;99.90
42907;DHT22;28552;51.146;6.576;2024-01-15T14:51:57;1.70;99.90
42907;DHT22;28552;51.146;6.576;2024-01-15T14:54:58;1.70;99.90
42907;DHT22;28552;51.146;6.576;2024-01-15T14:57:59;1.60;99.90
42907;DHT22;28552;51.146;6.576;2024-01-15T15:00:59;1.60;99.90
42907;DHT22;28552;51.146;6.576;2024-01-15T15:04:00;1.60;99.90
42907;DHT22;28552;51.146;6.576;2024-01-15T15:07:01;1.60;99.90
42907;DHT22;28552;51.146;6.576;2024-01-15T15:10:02;1.60;99.90
42907;DHT22;28552;51.146;6.576;2024-01-15T15:13:04;1.50;99.90
42907;DHT22;28552;51.146;6.576;2024-01-15T15:16:05;1.50;99.90
42907;DHT22;28552;51.146;6.576;2024-01-15T15:19:06;1.50;99.90
42907;DHT22;28552;51.146;6.576;2024-01-15T15:22:07;1.50;99.90
42907;DHT22;28552;51.146;6.576;2024-01-15T15:25:11;1.50;99.90
42907;DHT22;28552;51.146;6.576;2024-01-15T15:28:12;1.50;99.90
42907;DHT22;28552;51.146;6.576;2024-01-15T15:31:14;1.50;99.90
42907;DHT22;28552;51.146;6.576;2024-01-15T15:34:15;1.50;99.90
42907;DHT22;28552;51.146;6.576;2024-01-15T15:37:16;1.50;99.90
42907;DHT22;28552;51.146;6.576;2024-01-15T15:40:17;1.40;99.90
42907;DHT22;28552;51.146;6.576;2024-01-15T15:43:18;1.40;99.90
42907;DHT22;28552;51.146;6.576;2024-01-15T15:46:19;1.40;99.90
42907;DHT22;28552;51.146;6.576;2024-01-15T15:49:19;1.30;99.90
42907;DHT22;28552;51.146;6.576;2024-01-15T15:52:20;1.30;99.90
42907;DHT22;28552;51.146;6.576;2024-01-15T15:55:20;1.20;99.90
42907;DHT22;28552;51.146;6.576;2024-01-15T15:58:21;1.20;99.90
42907;DHT22;28552;51.146;6.576;2024-01-15T16:01:21;1.30;99.90
42907;DHT22;28552;51.146;6.576;2024-01-15T16:04:22;1.20;99.90
42907;DHT22;28552;51.146;6.576;2024-01-15T16:07:22;1.20;99.90
42907;DHT22;28552;51.146;6.576;2024-01-15T16:10:28;1.20;99.90
42907;DHT22;28552;51.146;6.576;2024-01-15T16:13:29;1.10;99.90
42907;DHT22;28552;51.146;6.576;2024-01-15T16:16:31;1.10;99.90
42907;DHT22;28552;51.146;6.576;2024-01-15T16:19:31;1.00;99.90
42907;DHT22;28552;51.146;6.576;2024-01-15T16:22:32;1.00;99.90
42907;DHT22;28552;51.146;6.576;2024-01-15T16:25:33;1.00;99.90
42907;DHT22;28552;51.146;6.576;2024-01-15T16:28:38;1.00;99.90
42907;DHT22;28552;51.146;6.576;2024-01-15T16:31:38;1.00;99.90
42907;DHT22;28552;51.146;6.576;2024-01-15T16:34:39;1.00;99.90
42907;DHT22;28552;51.146;6.576;2024-01-15T16:37:39;1.00;99.90
42907;DHT22;28552;51.146;6.576;2024-01-15T16:40:40;0.90;99.90
42907;DHT22;28552;51.146;6.576;2024-01-15T16:43:40;0.90;99.90
42907;DHT22;28552;51.146;6.576;2024-01-15T16:46:41;0.90;99.90
42907;DHT22;28552;51.146;6.576;2024-01-15T16:49:42;0.80;99.90
42907;DHT22;28552;51.146;6.576;2024-01-15T16:52:42;0.80;99.90
42907;DHT22;28552;51.146;6.576;2024-01-15T16:55:43;0.80;99.90
42907;DHT22;28552;51.146;6.576;2024-01-15T16:58:43;0.70;99.90
42907;DHT22;28552;51.146;6.576;2024-01-15T17:01:44;0.80;99.90
42907;DHT22;28552;51.146;6.576;2024-01-15T17:04:45;0.70;99.90
42907;DHT22;28552;51.146;6.576;2024-01-15T17:07:45;0.70;99.90
42907;DHT22;28552;51.146;6.576;2024-01-15T17:10:46;0.70;99.90
42907;DHT22;28552;51.146;6.576;2024-01-15T17:13:46;0.70;99.90
42907;DHT22;28552;51.146;6.576;2024-01-15T17:16:47;0.70;99.90
42907;DHT22;28552;51.146;6.576;2024-01-15T17:19:49;0.70;99.90
42907;DHT22;28552;51.146;6.576;2024-01-15T17:22:49;0.70;99.90
42907;DHT22;28552;51.146;6.576;2024-01-15T17:25:50;0.60;99.90
42907;DHT22;28552;51.146;6.576;2024-01-15T17:28:51;0.60;99.90
42907;DHT22;28552;51.146;6.576;2024-01-15T17:31:51;0.60;99.90
42907;DHT22;28552;51.146;6.576;2024-01-15T17:34:52;0.60;99.90
42907;DHT22;28552;51.146;6.576;2024-01-15T17:37:55;0.50;99.90
42907;DHT22;28552;51.146;6.576;2024-01-15T17:40:56;0.50;99.90
42907;DHT22;28552;51.146;6.576;2024-01-15T17:43:57;0.50;99.90
42907;DHT22;28552;51.146;6.576;2024-01-15T17:46:58;0.60;99.90
42907;DHT22;28552;51.146;6.576;2024-01-15T17:49:58;0.70;99.90
42907;DHT22;28552;51.146;6.576;2024-01-15T17:52:59;0.80;99.90
42907;DHT22;28552;51.146;6.576;2024-01-15T17:56:00;0.80;99.90
42907;DHT22;28552;51.146;6.576;2024-01-15T17:59:01;0.80;99.90
42907;DHT22;28552;51.146;6.576;2024-01-15T18:02:01;0.90;99.90
42907;DHT22;28552;51.146;6.576;2024-01-15T18:05:02;0.90;99.90
42907;DHT22;28552;51.146;6.576;2024-01-15T18:08:03;0.90;99.90
42907;DHT22;28552;51.146;6.576;2024-01-15T18:11:04;0.90;99.90
42907;DHT22;28552;51.146;6.576;2024-01-15T18:14:05;0.90;99.90
42907;DHT22;28552;51.146;6.576;2024-01-15T18:17:06;0.80;99.90
42907;DHT22;28552;51.146;6.576;2024-01-15T18:20:07;0.80;99.90
42907;DHT22;28552;51.146;6.576;2024-01-15T18:23:07;0.80;99.90
42907;DHT22;28552;51.146;6.576;2024-01-15T18:26:08;0.80;99.90
42907;DHT22;28552;51.146;6.576;2024-01-15T18:29:08;0.70;99.90
42907;DHT22;28552;51.146;6.576;2024-01-15T18:32:09;0.60;99.90
42907;DHT22;28552;51.146;6.576;2024-01-15T18:35:09;0.60;99.90
42907;DHT22;28552;51.146;6.576;2024-01-15T18:38:10;0.60;99.90
42907;DHT22;28552;51.146;6.576;2024-01-15T18:41:26;0.60;99.90
42907;DHT22;28552;51.146;6.576;2024-01-15T18:44:26;0.60;99.90
42907;DHT22;28552;51.146;6.576;2024-01-15T18:47:27;0.50;99.90
42907;DHT22;28552;51.146;6.576;2024-01-15T18:50:27;0.50;99.90
42907;DHT22;28552;51.146;6.576;2024-01-15T18:53:29;0.50;99.90
42907;DHT22;28552;51.146;6.576;2024-01-15T18:56:30;0.40;99.90
42907;DHT22;28552;51.146;6.576;2024-01-15T18:59:30;0.40;99.90
42907;DHT22;28552;51.146;6.576;2024-01-15T19:02:33;0.40;99.90
42907;DHT22;28552;51.146;6.576;2024-01-15T19:05:34;0.30;99.90
42907;DHT22;28552;51.146;6.576;2024-01-15T19:08:34;0.40;99.90
42907;DHT22;28552;51.146;6.576;2024-01-15T19:11:35;0.40;99.90
42907;DHT22;28552;51.146;6.576;2024-01-15T19:14:35;0.40;99.90
42907;DHT22;28552;51.146;6.576;2024-01-15T19:17:37;0.30;99.90
42907;DHT22;28552;51.146;6.576;2024-01-15T19:20:38;0.30;99.90
42907;DHT22;28552;51.146;6.576;2024-01-15T19:23:39;0.30;99.90
42907;DHT22;28552;51.146;6.576;2024-01-15T19:26:39;0.30;99.90
42907;DHT22;28552;51.146;6.576;2024-01-15T19:29:40;0.40;99.90